sensor_id;sensor_type;location;lat;lon;timestamp;P1;durP1;ratioP1;P2;durP2;ratioP2
60352;SDS011;46196;52.970;6.954;2023-04-24T00:00:05;6.07;;;2.17;;
60352;SDS011;46196;52.970;6.954;2023-04-24T00:02:31;4.93;;;2.20;;
60352;SDS011;46196;52.970;6.954;2023-04-24T00:05:03;3.72;;;2.60;;
60352;SDS011;46196;52.970;6.954;2023-04-24T00:07:32;3.42;;;2.42;;
60352;SDS011;46196;52.970;6.954;2023-04-24T00:09:59;3.55;;;2.40;;
60352;SDS011;46196;52.970;6.954;2023-04-24T00:12:25;3.03;;;2.35;;
60352;SDS011;46196;52.970;6.954;2023-04-24T00:14:52;4.47;;;3.08;;
60352;SDS011;46196;52.970;6.954;2023-04-24T00:17:18;3.97;;;2.78;;
60352;SDS011;46196;52.970;6.954;2023-04-24T00:19:48;4.88;;;2.88;;
60352;SDS011;46196;52.970;6.954;2023-04-24T00:22:16;3.80;;;2.80;;
60352;SDS011;46196;52.970;6.954;2023-04-24T00:24:42;5.63;;;3.33;;
60352;SDS011;46196;52.970;6.954;2023-04-24T00:27:08;4.95;;;3.30;;
60352;SDS011;46196;52.970;6.954;2023-04-24T00:29:33;6.03;;;3.25;;
60352;SDS011;46196;52.970;6.954;2023-04-24T00:31:59;6.07;;;3.80;;
60352;SDS011;46196;52.970;6.954;2023-04-24T00:34:25;5.43;;;3.83;;
60352;SDS011;46196;52.970;6.954;2023-04-24T00:36:51;5.70;;;3.67;;
60352;SDS011;46196;52.970;6.954;2023-04-24T00:39:20;5.43;;;3.75;;
60352;SDS011;46196;52.970;6.954;2023-04-24T00:41:46;5.85;;;3.80;;
60352;SDS011;46196;52.970;6.954;2023-04-24T00:44:13;6.20;;;4.18;;
60352;SDS011;46196;52.970;6.954;2023-04-24T00:46:39;6.20;;;4.10;;
60352;SDS011;46196;52.970;6.954;2023-04-24T00:49:06;6.53;;;4.55;;
60352;SDS011;46196;52.970;6.954;2023-04-24T00:51:32;7.45;;;4.70;;
60352;SDS011;46196;52.970;6.954;2023-04-24T00:53:59;9.40;;;5.05;;
60352;SDS011;46196;52.970;6.954;2023-04-24T00:56:26;8.75;;;5.18;;
60352;SDS011;46196;52.970;6.954;2023-04-24T00:58:52;9.13;;;5.38;;
60352;SDS011;46196;52.970;6.954;2023-04-24T01:01:22;8.02;;;5.30;;
60352;SDS011;46196;52.970;6.954;2023-04-24T01:03:50;9.27;;;5.03;;
60352;SDS011;46196;52.970;6.954;2023-04-24T01:06:18;9.18;;;4.90;;
60352;SDS011;46196;52.970;6.954;2023-04-24T01:08:44;8.98;;;4.95;;
60352;SDS011;46196;52.970;6.954;2023-04-24T01:11:12;7.95;;;5.18;;
60352;SDS011;46196;52.970;6.954;2023-04-24T01:13:38;7.35;;;5.13;;
60352;SDS011;46196;52.970;6.954;2023-04-24T01:16:05;7.68;;;4.47;;
60352;SDS011;46196;52.970;6.954;2023-04-24T01:18:31;7.63;;;5.15;;
60352;SDS011;46196;52.970;6.954;2023-04-24T01:20:57;8.18;;;5.25;;
60352;SDS011;46196;52.970;6.954;2023-04-24T01:23:25;7.68;;;4.80;;
60352;SDS011;46196;52.970;6.954;2023-04-24T01:25:51;6.85;;;4.90;;
60352;SDS011;46196;52.970;6.954;2023-04-24T01:28:17;6.32;;;4.25;;
60352;SDS011;46196;52.970;6.954;2023-04-24T01:30:44;6.15;;;4.13;;
60352;SDS011;46196;52.970;6.954;2023-04-24T01:33:10;5.70;;;4.03;;
60352;SDS011;46196;52.970;6.954;2023-04-24T01:35:36;6.40;;;4.40;;
60352;SDS011;46196;52.970;6.954;2023-04-24T01:38:02;7.20;;;4.80;;
60352;SDS011;46196;52.970;6.954;2023-04-24T01:40:29;7.40;;;5.10;;
60352;SDS011;46196;52.970;6.954;2023-04-24T01:42:55;8.98;;;4.47;;
60352;SDS011;46196;52.970;6.954;2023-04-24T01:45:22;6.60;;;4.75;;
60352;SDS011;46196;52.970;6.954;2023-04-24T01:47:48;7.68;;;5.45;;
60352;SDS011;46196;52.970;6.954;2023-04-24T01:50:15;9.57;;;6.32;;
60352;SDS011;46196;52.970;6.954;2023-04-24T01:52:41;8.90;;;5.47;;
60352;SDS011;46196;52.970;6.954;2023-04-24T01:55:07;9.52;;;6.20;;
60352;SDS011;46196;52.970;6.954;2023-04-24T01:57:33;12.88;;;6.15;;
60352;SDS011;46196;52.970;6.954;2023-04-24T01:59:59;9.07;;;6.75;;
60352;SDS011;46196;52.970;6.954;2023-04-24T02:02:25;10.98;;;7.38;;
60352;SDS011;46196;52.970;6.954;2023-04-24T02:04:55;8.40;;;6.13;;
60352;SDS011;46196;52.970;6.954;2023-04-24T02:07:22;11.25;;;7.22;;
60352;SDS011;46196;52.970;6.954;2023-04-24T02:09:47;9.93;;;6.93;;
60352;SDS011;46196;52.970;6.954;2023-04-24T02:12:14;10.00;;;6.50;;
60352;SDS011;46196;52.970;6.954;2023-04-24T02:14:40;8.35;;;6.07;;
60352;SDS011;46196;52.970;6.954;2023-04-24T02:17:07;9.68;;;6.28;;
60352;SDS011;46196;52.970;6.954;2023-04-24T02:19:33;10.80;;;7.05;;
60352;SDS011;46196;52.970;6.954;2023-04-24T02:21:58;9.32;;;6.63;;
60352;SDS011;46196;52.970;6.954;2023-04-24T02:24:24;10.15;;;6.15;;
60352;SDS011;46196;52.970;6.954;2023-04-24T02:26:50;16.60;;;6.90;;
60352;SDS011;46196;52.970;6.954;2023-04-24T02:29:15;9.07;;;6.28;;
60352;SDS011;46196;52.970;6.954;2023-04-24T02:31:41;10.75;;;6.57;;
60352;SDS011;46196;52.970;6.954;2023-04-24T02:34:07;10.60;;;7.38;;
60352;SDS011;46196;52.970;6.954;2023-04-24T02:36:32;8.75;;;5.43;;
60352;SDS011;46196;52.970;6.954;2023-04-24T02:38:58;11.70;;;6.80;;
60352;SDS011;46196;52.970;6.954;2023-04-24T02:41:23;10.98;;;7.93;;
60352;SDS011;46196;52.970;6.954;2023-04-24T02:43:49;15.77;;;7.88;;
60352;SDS011;46196;52.970;6.954;2023-04-24T02:46:15;12.98;;;7.53;;
60352;SDS011;46196;52.970;6.954;2023-04-24T02:48:41;13.43;;;8.65;;
60352;SDS011;46196;52.970;6.954;2023-04-24T02:51:07;13.35;;;7.53;;
60352;SDS011;46196;52.970;6.954;2023-04-24T02:53:33;16.00;;;8.15;;
60352;SDS011;46196;52.970;6.954;2023-04-24T02:55:59;11.40;;;7.28;;
60352;SDS011;46196;52.970;6.954;2023-04-24T02:58:24;12.75;;;7.97;;
60352;SDS011;46196;52.970;6.954;2023-04-24T03:00:53;14.98;;;8.25;;
60352;SDS011;46196;52.970;6.954;2023-04-24T03:03:20;13.00;;;7.47;;
60352;SDS011;46196;52.970;6.954;2023-04-24T03:05:46;12.70;;;7.18;;
60352;SDS011;46196;52.970;6.954;2023-04-24T03:08:12;11.20;;;6.30;;
60352;SDS011;46196;52.970;6.954;2023-04-24T03:10:37;15.55;;;7.38;;
60352;SDS011;46196;52.970;6.954;2023-04-24T03:13:03;13.00;;;7.72;;
60352;SDS011;46196;52.970;6.954;2023-04-24T03:15:29;15.18;;;8.48;;
60352;SDS011;46196;52.970;6.954;2023-04-24T03:17:54;13.82;;;8.70;;
60352;SDS011;46196;52.970;6.954;2023-04-24T03:20:20;15.93;;;9.98;;
60352;SDS011;46196;52.970;6.954;2023-04-24T03:22:46;14.38;;;9.13;;
60352;SDS011;46196;52.970;6.954;2023-04-24T03:25:12;16.30;;;9.50;;
60352;SDS011;46196;52.970;6.954;2023-04-24T03:27:37;14.57;;;8.60;;
60352;SDS011;46196;52.970;6.954;2023-04-24T03:30:04;15.43;;;9.05;;
60352;SDS011;46196;52.970;6.954;2023-04-24T03:32:34;13.95;;;8.93;;
60352;SDS011;46196;52.970;6.954;2023-04-24T03:34:59;15.50;;;8.63;;
60352;SDS011;46196;52.970;6.954;2023-04-24T03:37:25;14.18;;;9.07;;
60352;SDS011;46196;52.970;6.954;2023-04-24T03:39:51;14.10;;;8.63;;
60352;SDS011;46196;52.970;6.954;2023-04-24T03:42:17;16.48;;;8.63;;
60352;SDS011;46196;52.970;6.954;2023-04-24T03:44:43;16.67;;;9.00;;
60352;SDS011;46196;52.970;6.954;2023-04-24T03:47:08;15.07;;;7.97;;
60352;SDS011;46196;52.970;6.954;2023-04-24T03:49:34;15.63;;;9.10;;
60352;SDS011;46196;52.970;6.954;2023-04-24T03:52:00;15.73;;;8.75;;
60352;SDS011;46196;52.970;6.954;2023-04-24T03:54:26;14.48;;;8.88;;
60352;SDS011;46196;52.970;6.954;2023-04-24T03:56:52;14.43;;;8.40;;
60352;SDS011;46196;52.970;6.954;2023-04-24T03:59:18;13.27;;;7.68;;
60352;SDS011;46196;52.970;6.954;2023-04-24T04:01:43;13.50;;;8.60;;
60352;SDS011;46196;52.970;6.954;2023-04-24T04:04:10;14.60;;;8.25;;
60352;SDS011;46196;52.970;6.954;2023-04-24T04:06:36;14.85;;;8.15;;
60352;SDS011;46196;52.970;6.954;2023-04-24T04:09:02;13.23;;;9.07;;
60352;SDS011;46196;52.970;6.954;2023-04-24T04:11:28;16.13;;;7.68;;
60352;SDS011;46196;52.970;6.954;2023-04-24T04:13:55;12.18;;;6.88;;
60352;SDS011;46196;52.970;6.954;2023-04-24T04:16:21;15.63;;;8.18;;
60352;SDS011;46196;52.970;6.954;2023-04-24T04:18:47;15.93;;;7.93;;
60352;SDS011;46196;52.970;6.954;2023-04-24T04:21:13;14.35;;;8.07;;
60352;SDS011;46196;52.970;6.954;2023-04-24T04:23:39;20.13;;;10.00;;
60352;SDS011;46196;52.970;6.954;2023-04-24T04:26:05;15.18;;;9.18;;
60352;SDS011;46196;52.970;6.954;2023-04-24T04:28:31;16.00;;;9.18;;
60352;SDS011;46196;52.970;6.954;2023-04-24T04:30:57;14.70;;;8.63;;
60352;SDS011;46196;52.970;6.954;2023-04-24T04:33:23;16.80;;;8.80;;
60352;SDS011;46196;52.970;6.954;2023-04-24T04:35:49;14.27;;;8.65;;
60352;SDS011;46196;52.970;6.954;2023-04-24T04:38:17;17.38;;;9.00;;
60352;SDS011;46196;52.970;6.954;2023-04-24T04:40:44;16.00;;;8.65;;
60352;SDS011;46196;52.970;6.954;2023-04-24T04:43:10;17.38;;;9.40;;
60352;SDS011;46196;52.970;6.954;2023-04-24T04:45:36;16.40;;;8.77;;
60352;SDS011;46196;52.970;6.954;2023-04-24T04:48:04;14.95;;;8.55;;
60352;SDS011;46196;52.970;6.954;2023-04-24T04:50:32;16.35;;;8.48;;
60352;SDS011;46196;52.970;6.954;2023-04-24T04:52:58;17.15;;;8.98;;
60352;SDS011;46196;52.970;6.954;2023-04-24T04:55:24;16.40;;;8.55;;
60352;SDS011;46196;52.970;6.954;2023-04-24T04:57:50;15.85;;;8.40;;
60352;SDS011;46196;52.970;6.954;2023-04-24T05:00:16;16.25;;;7.72;;
60352;SDS011;46196;52.970;6.954;2023-04-24T05:02:42;15.95;;;7.80;;
60352;SDS011;46196;52.970;6.954;2023-04-24T05:05:08;16.00;;;8.68;;
60352;SDS011;46196;52.970;6.954;2023-04-24T05:07:34;16.58;;;8.05;;
60352;SDS011;46196;52.970;6.954;2023-04-24T05:10:00;14.63;;;8.00;;
60352;SDS011;46196;52.970;6.954;2023-04-24T05:12:25;13.55;;;8.10;;
60352;SDS011;46196;52.970;6.954;2023-04-24T05:14:51;16.08;;;7.53;;
60352;SDS011;46196;52.970;6.954;2023-04-24T05:17:17;17.35;;;8.90;;
60352;SDS011;46196;52.970;6.954;2023-04-24T05:19:43;13.00;;;7.25;;
60352;SDS011;46196;52.970;6.954;2023-04-24T05:22:10;14.32;;;7.47;;
60352;SDS011;46196;52.970;6.954;2023-04-24T05:24:36;15.82;;;7.90;;
60352;SDS011;46196;52.970;6.954;2023-04-24T05:27:02;16.33;;;7.68;;
60352;SDS011;46196;52.970;6.954;2023-04-24T05:29:29;17.52;;;8.52;;
60352;SDS011;46196;52.970;6.954;2023-04-24T05:31:56;15.55;;;7.78;;
60352;SDS011;46196;52.970;6.954;2023-04-24T05:34:22;14.65;;;7.25;;
60352;SDS011;46196;52.970;6.954;2023-04-24T05:36:48;14.98;;;7.35;;
60352;SDS011;46196;52.970;6.954;2023-04-24T05:39:15;17.00;;;8.20;;
60352;SDS011;46196;52.970;6.954;2023-04-24T05:41:41;12.30;;;7.00;;
60352;SDS011;46196;52.970;6.954;2023-04-24T05:44:07;16.95;;;8.00;;
60352;SDS011;46196;52.970;6.954;2023-04-24T05:46:33;16.73;;;7.95;;
60352;SDS011;46196;52.970;6.954;2023-04-24T05:48:58;13.38;;;7.15;;
60352;SDS011;46196;52.970;6.954;2023-04-24T05:51:24;14.07;;;8.40;;
60352;SDS011;46196;52.970;6.954;2023-04-24T05:53:51;14.00;;;7.00;;
60352;SDS011;46196;52.970;6.954;2023-04-24T05:56:17;16.10;;;8.10;;
60352;SDS011;46196;52.970;6.954;2023-04-24T05:58:43;15.40;;;7.15;;
60352;SDS011;46196;52.970;6.954;2023-04-24T06:01:10;14.02;;;7.53;;
60352;SDS011;46196;52.970;6.954;2023-04-24T06:03:37;15.10;;;7.93;;
60352;SDS011;46196;52.970;6.954;2023-04-24T06:06:04;16.00;;;7.65;;
60352;SDS011;46196;52.970;6.954;2023-04-24T06:08:31;16.88;;;7.80;;
60352;SDS011;46196;52.970;6.954;2023-04-24T06:10:56;10.75;;;6.22;;
60352;SDS011;46196;52.970;6.954;2023-04-24T06:13:22;12.93;;;6.57;;
60352;SDS011;46196;52.970;6.954;2023-04-24T06:15:47;19.95;;;9.23;;
60352;SDS011;46196;52.970;6.954;2023-04-24T06:18:13;13.77;;;6.82;;
60352;SDS011;46196;52.970;6.954;2023-04-24T06:20:39;12.18;;;6.93;;
60352;SDS011;46196;52.970;6.954;2023-04-24T06:23:05;12.23;;;6.32;;
60352;SDS011;46196;52.970;6.954;2023-04-24T06:25:30;12.38;;;6.10;;
60352;SDS011;46196;52.970;6.954;2023-04-24T06:27:56;10.80;;;6.05;;
60352;SDS011;46196;52.970;6.954;2023-04-24T06:30:22;11.93;;;5.43;;
60352;SDS011;46196;52.970;6.954;2023-04-24T06:32:48;12.65;;;5.95;;
60352;SDS011;46196;52.970;6.954;2023-04-24T06:35:14;9.88;;;5.43;;
60352;SDS011;46196;52.970;6.954;2023-04-24T06:37:40;10.32;;;5.70;;
60352;SDS011;46196;52.970;6.954;2023-04-24T06:40:06;10.50;;;5.55;;
60352;SDS011;46196;52.970;6.954;2023-04-24T06:42:33;9.52;;;5.30;;
60352;SDS011;46196;52.970;6.954;2023-04-24T06:45:00;12.43;;;5.15;;
60352;SDS011;46196;52.970;6.954;2023-04-24T06:47:26;11.23;;;5.55;;
60352;SDS011;46196;52.970;6.954;2023-04-24T06:49:52;10.98;;;6.05;;
60352;SDS011;46196;52.970;6.954;2023-04-24T06:52:18;10.95;;;5.40;;
60352;SDS011;46196;52.970;6.954;2023-04-24T06:54:44;10.52;;;4.72;;
60352;SDS011;46196;52.970;6.954;2023-04-24T06:57:10;8.15;;;4.88;;
60352;SDS011;46196;52.970;6.954;2023-04-24T06:59:36;9.32;;;5.00;;
60352;SDS011;46196;52.970;6.954;2023-04-24T07:02:02;8.52;;;5.05;;
60352;SDS011;46196;52.970;6.954;2023-04-24T07:04:29;9.38;;;5.18;;
60352;SDS011;46196;52.970;6.954;2023-04-24T07:06:55;7.72;;;4.57;;
60352;SDS011;46196;52.970;6.954;2023-04-24T07:09:21;7.70;;;4.13;;
60352;SDS011;46196;52.970;6.954;2023-04-24T07:11:49;9.88;;;4.40;;
60352;SDS011;46196;52.970;6.954;2023-04-24T07:14:15;7.70;;;4.07;;
60352;SDS011;46196;52.970;6.954;2023-04-24T07:16:41;8.48;;;3.88;;
60352;SDS011;46196;52.970;6.954;2023-04-24T07:19:07;6.95;;;3.85;;
60352;SDS011;46196;52.970;6.954;2023-04-24T07:21:32;7.35;;;3.92;;
60352;SDS011;46196;52.970;6.954;2023-04-24T07:23:58;8.68;;;4.07;;
60352;SDS011;46196;52.970;6.954;2023-04-24T07:26:25;9.48;;;4.70;;
60352;SDS011;46196;52.970;6.954;2023-04-24T07:28:51;8.07;;;4.45;;
60352;SDS011;46196;52.970;6.954;2023-04-24T07:31:18;10.10;;;4.55;;
60352;SDS011;46196;52.970;6.954;2023-04-24T07:33:43;7.53;;;3.92;;
60352;SDS011;46196;52.970;6.954;2023-04-24T07:36:09;6.80;;;4.15;;
60352;SDS011;46196;52.970;6.954;2023-04-24T07:38:40;8.13;;;4.00;;
60352;SDS011;46196;52.970;6.954;2023-04-24T07:41:07;6.25;;;3.60;;
60352;SDS011;46196;52.970;6.954;2023-04-24T07:43:33;5.97;;;4.13;;
60352;SDS011;46196;52.970;6.954;2023-04-24T07:45:58;7.30;;;3.92;;
60352;SDS011;46196;52.970;6.954;2023-04-24T07:48:24;6.90;;;4.20;;
60352;SDS011;46196;52.970;6.954;2023-04-24T07:50:52;7.78;;;4.65;;
60352;SDS011;46196;52.970;6.954;2023-04-24T07:53:18;9.38;;;5.45;;
60352;SDS011;46196;52.970;6.954;2023-04-24T07:55:43;10.75;;;6.10;;
60352;SDS011;46196;52.970;6.954;2023-04-24T07:58:09;13.95;;;7.68;;
60352;SDS011;46196;52.970;6.954;2023-04-24T08:00:35;12.82;;;6.30;;
60352;SDS011;46196;52.970;6.954;2023-04-24T08:03:00;11.60;;;6.47;;
60352;SDS011;46196;52.970;6.954;2023-04-24T08:05:26;12.15;;;6.22;;
60352;SDS011;46196;52.970;6.954;2023-04-24T08:07:53;14.82;;;6.80;;
60352;SDS011;46196;52.970;6.954;2023-04-24T08:10:20;9.23;;;4.28;;
60352;SDS011;46196;52.970;6.954;2023-04-24T08:12:47;6.72;;;3.28;;
60352;SDS011;46196;52.970;6.954;2023-04-24T08:15:12;6.10;;;3.50;;
60352;SDS011;46196;52.970;6.954;2023-04-24T08:17:38;7.45;;;3.50;;
60352;SDS011;46196;52.970;6.954;2023-04-24T08:20:04;9.88;;;3.45;;
60352;SDS011;46196;52.970;6.954;2023-04-24T08:22:31;8.65;;;3.50;;
60352;SDS011;46196;52.970;6.954;2023-04-24T08:24:57;5.60;;;3.40;;
60352;SDS011;46196;52.970;6.954;2023-04-24T08:27:25;6.38;;;3.47;;
60352;SDS011;46196;52.970;6.954;2023-04-24T08:29:54;7.78;;;3.45;;
60352;SDS011;46196;52.970;6.954;2023-04-24T08:32:20;5.68;;;3.47;;
60352;SDS011;46196;52.970;6.954;2023-04-24T08:34:47;10.43;;;4.70;;
60352;SDS011;46196;52.970;6.954;2023-04-24T08:37:12;8.07;;;4.20;;
60352;SDS011;46196;52.970;6.954;2023-04-24T08:39:38;8.55;;;4.40;;
60352;SDS011;46196;52.970;6.954;2023-04-24T08:42:04;9.05;;;4.70;;
60352;SDS011;46196;52.970;6.954;2023-04-24T08:44:33;9.85;;;4.03;;
60352;SDS011;46196;52.970;6.954;2023-04-24T08:47:00;11.82;;;5.32;;
60352;SDS011;46196;52.970;6.954;2023-04-24T08:49:27;10.32;;;4.50;;
60352;SDS011;46196;52.970;6.954;2023-04-24T08:51:53;10.93;;;5.40;;
60352;SDS011;46196;52.970;6.954;2023-04-24T08:54:19;14.05;;;6.15;;
60352;SDS011;46196;52.970;6.954;2023-04-24T08:56:47;16.30;;;5.75;;
60352;SDS011;46196;52.970;6.954;2023-04-24T08:59:14;10.85;;;5.43;;
60352;SDS011;46196;52.970;6.954;2023-04-24T09:01:40;11.20;;;6.50;;
60352;SDS011;46196;52.970;6.954;2023-04-24T09:04:07;19.80;;;8.15;;
60352;SDS011;46196;52.970;6.954;2023-04-24T09:06:38;12.45;;;6.63;;
60352;SDS011;46196;52.970;6.954;2023-04-24T09:09:04;21.75;;;9.48;;
60352;SDS011;46196;52.970;6.954;2023-04-24T09:11:31;26.52;;;10.75;;
60352;SDS011;46196;52.970;6.954;2023-04-24T09:13:57;23.73;;;9.10;;
60352;SDS011;46196;52.970;6.954;2023-04-24T09:16:24;30.60;;;10.90;;
60352;SDS011;46196;52.970;6.954;2023-04-24T09:18:51;26.73;;;10.93;;
60352;SDS011;46196;52.970;6.954;2023-04-24T09:21:17;32.38;;;12.57;;
60352;SDS011;46196;52.970;6.954;2023-04-24T09:23:45;29.50;;;12.57;;
60352;SDS011;46196;52.970;6.954;2023-04-24T09:26:11;37.35;;;13.52;;
60352;SDS011;46196;52.970;6.954;2023-04-24T09:28:41;34.15;;;13.38;;
60352;SDS011;46196;52.970;6.954;2023-04-24T09:33:33;33.08;;;14.10;;
60352;SDS011;46196;52.970;6.954;2023-04-24T09:35:59;39.88;;;15.48;;
60352;SDS011;46196;52.970;6.954;2023-04-24T09:38:37;45.58;;;16.65;;
60352;SDS011;46196;52.970;6.954;2023-04-24T09:41:06;28.77;;;13.75;;
60352;SDS011;46196;52.970;6.954;2023-04-24T09:43:33;21.08;;;12.20;;
60352;SDS011;46196;52.970;6.954;2023-04-24T09:46:03;40.83;;;13.98;;
60352;SDS011;46196;52.970;6.954;2023-04-24T09:48:31;40.13;;;14.73;;
60352;SDS011;46196;52.970;6.954;2023-04-24T09:50:58;44.17;;;16.05;;
60352;SDS011;46196;52.970;6.954;2023-04-24T09:53:25;34.10;;;13.63;;
60352;SDS011;46196;52.970;6.954;2023-04-24T09:55:52;32.13;;;14.30;;
60352;SDS011;46196;52.970;6.954;2023-04-24T09:58:18;34.72;;;14.77;;
60352;SDS011;46196;52.970;6.954;2023-04-24T10:00:52;39.85;;;17.25;;
60352;SDS011;46196;52.970;6.954;2023-04-24T10:03:19;36.05;;;12.77;;
60352;SDS011;46196;52.970;6.954;2023-04-24T10:05:45;32.72;;;15.10;;
60352;SDS011;46196;52.970;6.954;2023-04-24T10:08:12;33.22;;;13.73;;
60352;SDS011;46196;52.970;6.954;2023-04-24T10:10:41;40.97;;;17.58;;
60352;SDS011;46196;52.970;6.954;2023-04-24T10:13:09;28.15;;;14.10;;
60352;SDS011;46196;52.970;6.954;2023-04-24T10:15:36;27.65;;;11.95;;
60352;SDS011;46196;52.970;6.954;2023-04-24T10:18:03;31.00;;;12.90;;
60352;SDS011;46196;52.970;6.954;2023-04-24T10:20:31;28.65;;;12.55;;
60352;SDS011;46196;52.970;6.954;2023-04-24T10:22:57;33.05;;;13.95;;
60352;SDS011;46196;52.970;6.954;2023-04-24T10:25:25;34.40;;;12.70;;
60352;SDS011;46196;52.970;6.954;2023-04-24T10:27:56;20.70;;;9.65;;
60352;SDS011;46196;52.970;6.954;2023-04-24T10:30:24;31.40;;;11.57;;
60352;SDS011;46196;52.970;6.954;2023-04-24T10:32:55;25.52;;;11.38;;
60352;SDS011;46196;52.970;6.954;2023-04-24T10:35:21;25.27;;;10.20;;
60352;SDS011;46196;52.970;6.954;2023-04-24T10:37:53;30.27;;;12.80;;
60352;SDS011;46196;52.970;6.954;2023-04-24T10:40:26;27.38;;;12.18;;
60352;SDS011;46196;52.970;6.954;2023-04-24T10:42:55;21.00;;;10.63;;
60352;SDS011;46196;52.970;6.954;2023-04-24T10:45:22;23.00;;;8.68;;
60352;SDS011;46196;52.970;6.954;2023-04-24T10:47:58;26.30;;;10.63;;
60352;SDS011;46196;52.970;6.954;2023-04-24T10:51:14;32.92;;;10.85;;
60352;SDS011;46196;52.970;6.954;2023-04-24T10:53:18;20.65;;;8.68;;
60352;SDS011;46196;52.970;6.954;2023-04-24T10:58:15;19.45;;;9.18;;
60352;SDS011;46196;52.970;6.954;2023-04-24T11:00:42;28.73;;;9.95;;
60352;SDS011;46196;52.970;6.954;2023-04-24T11:06:08;17.15;;;7.55;;
60352;SDS011;46196;52.970;6.954;2023-04-24T11:08:44;20.67;;;9.13;;
60352;SDS011;46196;52.970;6.954;2023-04-24T11:11:11;15.02;;;6.75;;
60352;SDS011;46196;52.970;6.954;2023-04-24T11:21:18;25.58;;;8.10;;
60352;SDS011;46196;52.970;6.954;2023-04-24T11:23:44;20.33;;;7.35;;
60352;SDS011;46196;52.970;6.954;2023-04-24T11:26:12;16.23;;;7.80;;
60352;SDS011;46196;52.970;6.954;2023-04-24T11:29:06;14.23;;;5.82;;
60352;SDS011;46196;52.970;6.954;2023-04-24T11:31:40;14.98;;;6.03;;
60352;SDS011;46196;52.970;6.954;2023-04-24T11:34:10;17.42;;;6.10;;
60352;SDS011;46196;52.970;6.954;2023-04-24T11:36:40;15.02;;;5.82;;
60352;SDS011;46196;52.970;6.954;2023-04-24T11:39:10;8.45;;;4.15;;
60352;SDS011;46196;52.970;6.954;2023-04-24T11:41:36;20.65;;;6.25;;
60352;SDS011;46196;52.970;6.954;2023-04-24T11:44:02;11.38;;;5.50;;
60352;SDS011;46196;52.970;6.954;2023-04-24T11:46:30;14.60;;;6.18;;
60352;SDS011;46196;52.970;6.954;2023-04-24T11:48:57;12.50;;;4.97;;
60352;SDS011;46196;52.970;6.954;2023-04-24T11:51:24;9.10;;;4.35;;
60352;SDS011;46196;52.970;6.954;2023-04-24T11:53:51;7.68;;;3.67;;
60352;SDS011;46196;52.970;6.954;2023-04-24T11:56:24;12.77;;;5.13;;
60352;SDS011;46196;52.970;6.954;2023-04-24T11:58:53;12.52;;;5.03;;
60352;SDS011;46196;52.970;6.954;2023-04-24T12:01:19;13.68;;;4.70;;
60352;SDS011;46196;52.970;6.954;2023-04-24T12:03:49;10.43;;;4.07;;
60352;SDS011;46196;52.970;6.954;2023-04-24T12:06:16;8.73;;;3.45;;
60352;SDS011;46196;52.970;6.954;2023-04-24T12:08:45;10.50;;;4.28;;
60352;SDS011;46196;52.970;6.954;2023-04-24T12:11:14;8.37;;;4.00;;
60352;SDS011;46196;52.970;6.954;2023-04-24T12:13:41;11.88;;;4.75;;
60352;SDS011;46196;52.970;6.954;2023-04-24T12:16:06;10.68;;;4.30;;
60352;SDS011;46196;52.970;6.954;2023-04-24T12:18:32;12.23;;;4.57;;
60352;SDS011;46196;52.970;6.954;2023-04-24T12:23:47;6.90;;;3.63;;
60352;SDS011;46196;52.970;6.954;2023-04-24T12:26:17;7.65;;;3.80;;
60352;SDS011;46196;52.970;6.954;2023-04-24T12:28:45;7.93;;;3.40;;
60352;SDS011;46196;52.970;6.954;2023-04-24T12:31:13;12.85;;;4.63;;
60352;SDS011;46196;52.970;6.954;2023-04-24T12:33:39;9.00;;;3.85;;
60352;SDS011;46196;52.970;6.954;2023-04-24T12:36:04;9.23;;;4.20;;
60352;SDS011;46196;52.970;6.954;2023-04-24T12:38:31;11.35;;;3.67;;
60352;SDS011;46196;52.970;6.954;2023-04-24T12:41:11;7.47;;;3.65;;
60352;SDS011;46196;52.970;6.954;2023-04-24T12:43:38;9.85;;;4.00;;
60352;SDS011;46196;52.970;6.954;2023-04-24T12:46:16;9.65;;;3.20;;
60352;SDS011;46196;52.970;6.954;2023-04-24T12:48:42;8.73;;;4.72;;
60352;SDS011;46196;52.970;6.954;2023-04-24T12:51:07;7.25;;;2.90;;
60352;SDS011;46196;52.970;6.954;2023-04-24T12:53:33;9.60;;;3.92;;
60352;SDS011;46196;52.970;6.954;2023-04-24T12:55:59;6.03;;;3.58;;
60352;SDS011;46196;52.970;6.954;2023-04-24T12:58:24;11.38;;;3.65;;
60352;SDS011;46196;52.970;6.954;2023-04-24T13:00:50;7.97;;;3.35;;
60352;SDS011;46196;52.970;6.954;2023-04-24T13:03:16;7.85;;;3.85;;
60352;SDS011;46196;52.970;6.954;2023-04-24T13:05:42;7.88;;;3.70;;
60352;SDS011;46196;52.970;6.954;2023-04-24T13:08:08;7.68;;;3.08;;
60352;SDS011;46196;52.970;6.954;2023-04-24T13:10:34;6.40;;;3.13;;
60352;SDS011;46196;52.970;6.954;2023-04-24T13:13:00;6.10;;;3.10;;
60352;SDS011;46196;52.970;6.954;2023-04-24T13:15:26;9.18;;;4.47;;
60352;SDS011;46196;52.970;6.954;2023-04-24T13:17:52;8.68;;;3.47;;
60352;SDS011;46196;52.970;6.954;2023-04-24T13:20:17;12.18;;;4.28;;
60352;SDS011;46196;52.970;6.954;2023-04-24T13:22:43;12.27;;;4.65;;
60352;SDS011;46196;52.970;6.954;2023-04-24T13:25:09;9.43;;;3.60;;
60352;SDS011;46196;52.970;6.954;2023-04-24T13:27:35;9.60;;;3.22;;
60352;SDS011;46196;52.970;6.954;2023-04-24T13:30:02;11.30;;;3.85;;
60352;SDS011;46196;52.970;6.954;2023-04-24T13:32:28;9.60;;;3.17;;
60352;SDS011;46196;52.970;6.954;2023-04-24T13:34:53;6.97;;;3.13;;
60352;SDS011;46196;52.970;6.954;2023-04-24T13:37:19;8.63;;;3.35;;
60352;SDS011;46196;52.970;6.954;2023-04-24T13:39:45;11.80;;;3.50;;
60352;SDS011;46196;52.970;6.954;2023-04-24T13:42:10;5.13;;;3.03;;
60352;SDS011;46196;52.970;6.954;2023-04-24T13:44:36;7.57;;;3.42;;
60352;SDS011;46196;52.970;6.954;2023-04-24T13:47:02;12.30;;;3.33;;
60352;SDS011;46196;52.970;6.954;2023-04-24T13:49:28;7.80;;;3.00;;
60352;SDS011;46196;52.970;6.954;2023-04-24T13:51:54;8.68;;;2.92;;
60352;SDS011;46196;52.970;6.954;2023-04-24T13:54:20;8.77;;;2.78;;
60352;SDS011;46196;52.970;6.954;2023-04-24T13:56:48;8.02;;;2.90;;
60352;SDS011;46196;52.970;6.954;2023-04-24T13:59:14;6.18;;;2.75;;
60352;SDS011;46196;52.970;6.954;2023-04-24T14:01:40;10.07;;;3.22;;
60352;SDS011;46196;52.970;6.954;2023-04-24T14:04:06;8.30;;;3.05;;
60352;SDS011;46196;52.970;6.954;2023-04-24T14:06:31;7.47;;;2.83;;
60352;SDS011;46196;52.970;6.954;2023-04-24T14:08:57;4.90;;;2.25;;
60352;SDS011;46196;52.970;6.954;2023-04-24T14:11:23;6.18;;;2.78;;
60352;SDS011;46196;52.970;6.954;2023-04-24T14:13:48;6.82;;;2.50;;
60352;SDS011;46196;52.970;6.954;2023-04-24T14:16:17;3.90;;;2.33;;
60352;SDS011;46196;52.970;6.954;2023-04-24T14:18:43;5.00;;;2.70;;
60352;SDS011;46196;52.970;6.954;2023-04-24T14:21:09;3.92;;;2.33;;
60352;SDS011;46196;52.970;6.954;2023-04-24T14:23:35;5.45;;;2.47;;
60352;SDS011;46196;52.970;6.954;2023-04-24T14:26:00;8.57;;;2.53;;
60352;SDS011;46196;52.970;6.954;2023-04-24T14:28:26;7.22;;;2.50;;
60352;SDS011;46196;52.970;6.954;2023-04-24T14:30:52;7.45;;;2.42;;
60352;SDS011;46196;52.970;6.954;2023-04-24T14:33:18;5.65;;;2.70;;
60352;SDS011;46196;52.970;6.954;2023-04-24T14:35:44;9.52;;;2.97;;
60352;SDS011;46196;52.970;6.954;2023-04-24T14:38:10;5.13;;;2.65;;
60352;SDS011;46196;52.970;6.954;2023-04-24T14:40:36;9.20;;;2.67;;
60352;SDS011;46196;52.970;6.954;2023-04-24T14:43:03;7.78;;;2.40;;
60352;SDS011;46196;52.970;6.954;2023-04-24T14:45:29;7.05;;;2.40;;
60352;SDS011;46196;52.970;6.954;2023-04-24T14:47:54;6.75;;;2.50;;
60352;SDS011;46196;52.970;6.954;2023-04-24T14:50:21;6.68;;;2.60;;
60352;SDS011;46196;52.970;6.954;2023-04-24T14:52:47;4.43;;;2.35;;